createdAt,value
2019-03-23T00:02:22.920Z,62.70
2019-03-23T00:05:15.075Z,60.07
2019-03-23T00:08:06.163Z,62.20
2019-03-23T00:10:56.329Z,62.13
2019-03-23T00:13:46.948Z,55.73
2019-03-23T00:16:37.775Z,63.40
2019-03-23T00:19:28.584Z,64.50
2019-03-23T00:22:19.447Z,60.97
2019-03-23T00:25:10.602Z,59.33
2019-03-23T00:28:01.560Z,60.97
2019-03-23T00:30:52.216Z,78.67
2019-03-23T00:33:43.086Z,66.13
2019-03-23T00:36:41.306Z,58.47
2019-03-23T00:39:26.583Z,61.00
2019-03-23T00:42:17.463Z,54.30
2019-03-23T00:45:10.022Z,57.60
2019-03-23T00:48:00.525Z,66.13
2019-03-23T00:50:51.548Z,55.13
2019-03-23T00:53:42.200Z,53.30
2019-03-23T00:56:33.045Z,55.10
2019-03-23T00:59:23.205Z,53.73
2019-03-23T01:02:13.364Z,51.80
2019-03-23T01:05:04.499Z,58.03
2019-03-23T01:07:54.789Z,50.37
2019-03-23T01:10:45.446Z,51.10
2019-03-23T01:13:37.258Z,64.53
2019-03-23T01:16:28.214Z,48.90
2019-03-23T01:19:18.979Z,55.03
2019-03-23T01:22:09.388Z,47.27
2019-03-23T01:25:00.312Z,48.33
2019-03-23T01:27:50.809Z,45.57
2019-03-23T01:30:41.326Z,47.70
2019-03-23T01:33:32.331Z,59.90
2019-03-23T01:36:23.430Z,53.27
2019-03-23T01:39:14.407Z,45.37
2019-03-23T01:42:05.161Z,51.33
2019-03-23T01:44:55.969Z,52.40
2019-03-23T01:47:46.861Z,47.23
2019-03-23T01:50:37.670Z,50.20
2019-03-23T01:53:28.013Z,46.67
2019-03-23T01:56:18.604Z,45.47
2019-03-23T01:59:09.324Z,49.33
2019-03-23T02:01:59.804Z,46.60
2019-03-23T02:04:51.701Z,46.50
2019-03-23T02:07:42.713Z,41.73
2019-03-23T02:10:33.519Z,43.37
2019-03-23T02:13:24.416Z,49.63
2019-03-23T02:16:15.155Z,40.93
2019-03-23T02:19:07.129Z,51.33
2019-03-23T02:21:57.995Z,46.50
2019-03-23T02:24:48.833Z,45.03
2019-03-23T02:27:39.531Z,47.13
2019-03-23T02:30:30.121Z,50.83
2019-03-23T02:33:20.921Z,48.43
2019-03-23T02:36:11.141Z,43.87
2019-03-23T02:39:02.056Z,42.67
2019-03-23T02:41:54.078Z,44.17
2019-03-23T02:44:45.028Z,46.10
2019-03-23T02:47:35.885Z,53.47
2019-03-23T02:50:27.519Z,39.67
2019-03-23T02:53:19.445Z,45.10
2019-03-23T02:56:10.576Z,42.23
2019-03-23T02:59:01.274Z,37.03
2019-03-23T03:01:52.208Z,46.03
2019-03-23T03:04:43.157Z,42.57
2019-03-23T03:07:41.899Z,39.63
2019-03-23T03:10:41.903Z,45.90
2019-03-23T03:13:33.172Z,39.93
2019-03-23T03:16:23.915Z,39.03
2019-03-23T03:19:14.885Z,36.30
2019-03-23T03:22:05.768Z,37.63
2019-03-23T03:24:56.553Z,36.80
2019-03-23T03:27:46.768Z,30.60
2019-03-23T03:30:38.135Z,44.67
2019-03-23T03:33:28.592Z,45.10
2019-03-23T03:36:19.302Z,40.10
2019-03-23T03:39:11.208Z,39.47
2019-03-23T03:42:02.061Z,38.83
2019-03-23T03:44:52.851Z,36.77
2019-03-23T03:47:43.847Z,35.43
2019-03-23T03:50:34.778Z,40.40
2019-03-23T03:53:25.744Z,38.80
2019-03-23T03:56:16.299Z,34.57
2019-03-23T03:59:07.082Z,35.57
2019-03-23T04:01:57.573Z,38.47
2019-03-23T04:04:48.521Z,34.83
2019-03-23T04:07:39.182Z,40.37
2019-03-23T04:10:29.625Z,39.83
2019-03-23T04:13:20.055Z,37.87
2019-03-23T04:16:10.905Z,44.27
2019-03-23T04:19:02.093Z,39.40
2019-03-23T04:21:52.991Z,36.27
2019-03-23T04:24:43.633Z,44.10
2019-03-23T04:27:34.286Z,45.20
2019-03-23T04:30:25.398Z,43.17
2019-03-23T04:33:16.317Z,37.60
2019-03-23T04:36:07.250Z,37.77
2019-03-23T04:38:58.206Z,39.10
2019-03-23T04:41:50.074Z,35.57
2019-03-23T04:44:41.080Z,38.13
2019-03-23T04:47:32.259Z,38.33
2019-03-23T04:50:23.213Z,40.53
2019-03-23T04:53:13.681Z,40.10
2019-03-23T04:56:04.592Z,36.40
2019-03-23T04:58:55.298Z,41.90
2019-03-23T05:01:46.003Z,48.10
2019-03-23T05:04:36.732Z,44.60
2019-03-23T05:07:27.478Z,39.43
2019-03-23T05:10:19.101Z,33.07
2019-03-23T05:13:11.511Z,45.67
2019-03-23T05:16:02.278Z,34.00
2019-03-23T05:18:52.560Z,37.87
2019-03-23T05:21:43.517Z,34.50
2019-03-23T05:24:33.864Z,31.10
2019-03-23T05:27:24.166Z,36.23
2019-03-23T05:30:15.179Z,35.60
2019-03-23T05:33:05.859Z,35.60
2019-03-23T05:35:56.954Z,30.27
2019-03-23T05:38:47.765Z,35.00
2019-03-23T05:41:39.315Z,44.50
2019-03-23T05:44:30.095Z,38.10
2019-03-23T05:47:20.918Z,35.03
2019-03-23T05:50:12.188Z,34.83
2019-03-23T05:53:02.884Z,33.43
2019-03-23T05:55:53.348Z,38.50
2019-03-23T05:58:44.102Z,33.90
2019-03-23T06:01:34.922Z,35.90
2019-03-23T06:04:25.702Z,34.90
2019-03-23T06:07:16.689Z,38.93
2019-03-23T06:10:08.418Z,32.60
2019-03-23T06:12:59.002Z,28.87
2019-03-23T06:15:49.444Z,35.90
2019-03-23T06:18:40.069Z,27.43
2019-03-23T06:21:31.056Z,30.53
2019-03-23T06:24:21.496Z,38.73
2019-03-23T06:27:12.142Z,29.10
2019-03-23T06:30:02.892Z,28.87
2019-03-23T06:32:53.663Z,29.30
2019-03-23T06:35:44.225Z,27.60
2019-03-23T06:38:35.164Z,25.93
2019-03-23T06:41:25.886Z,30.93
2019-03-23T06:44:18.380Z,31.90
2019-03-23T06:47:10.321Z,34.10
2019-03-23T06:50:00.832Z,24.57
2019-03-23T06:52:51.762Z,28.90
2019-03-23T06:55:42.579Z,27.03
2019-03-23T06:58:33.321Z,28.03
2019-03-23T07:01:24.489Z,26.00
2019-03-23T07:04:15.418Z,19.50
2019-03-23T07:07:06.524Z,25.53
2019-03-23T07:09:57.436Z,19.57
2019-03-23T07:12:48.543Z,16.00
2019-03-23T07:15:38.740Z,19.80
2019-03-23T07:18:29.091Z,21.40
2019-03-23T07:21:19.735Z,16.93
2019-03-23T07:24:10.457Z,26.63
2019-03-23T07:27:01.487Z,19.10
2019-03-23T07:29:51.708Z,17.07
2019-03-23T07:32:42.129Z,17.70
2019-03-23T07:35:33.106Z,19.57
2019-03-23T07:38:23.605Z,20.17
2019-03-23T07:41:14.520Z,18.20
2019-03-23T07:44:04.842Z,22.13
2019-03-23T07:46:55.557Z,25.37
2019-03-23T07:49:46.009Z,13.37
2019-03-23T07:52:37.043Z,15.83
2019-03-23T07:55:27.871Z,15.27
2019-03-23T07:58:18.555Z,19.73
2019-03-23T08:01:09.930Z,15.07
2019-03-23T08:04:00.665Z,13.80
2019-03-23T08:06:51.121Z,18.50
2019-03-23T08:09:41.799Z,15.53
2019-03-23T08:12:32.502Z,17.13
2019-03-23T08:15:23.474Z,13.10
2019-03-23T08:18:14.165Z,16.87
2019-03-23T08:21:05.083Z,12.20
2019-03-23T08:23:56.208Z,12.03
2019-03-23T08:26:47.070Z,13.37
2019-03-23T08:29:37.864Z,17.63
2019-03-23T08:32:28.663Z,14.50
2019-03-23T08:35:19.487Z,16.00
2019-03-23T08:38:10.438Z,15.50
2019-03-23T08:41:00.994Z,14.60
2019-03-23T08:43:51.682Z,13.67
2019-03-23T08:46:42.395Z,13.20
2019-03-23T08:49:33.117Z,14.83
2019-03-23T08:52:24.068Z,16.77
2019-03-23T08:55:14.458Z,22.40
2019-03-23T08:58:04.995Z,21.80
2019-03-23T09:00:56.061Z,19.90
2019-03-23T09:03:52.406Z,14.57
2019-03-23T09:06:39.443Z,20.17
2019-03-23T09:09:30.442Z,13.17
2019-03-23T09:12:21.404Z,19.80
2019-03-23T09:15:13.455Z,18.93
2019-03-23T09:18:04.138Z,20.00
2019-03-23T09:20:55.126Z,23.10
2019-03-23T09:23:45.729Z,17.70
2019-03-23T09:26:36.300Z,22.83
2019-03-23T09:29:26.574Z,20.13
2019-03-23T09:32:17.494Z,16.47
2019-03-23T09:35:09.237Z,23.60
2019-03-23T09:37:59.868Z,15.20
2019-03-23T09:40:50.295Z,19.83
2019-03-23T09:43:41.110Z,22.20
2019-03-23T09:46:31.869Z,18.80
2019-03-23T09:49:22.618Z,20.30
2019-03-23T09:52:13.478Z,16.53
2019-03-23T09:55:03.892Z,18.07
2019-03-23T09:57:54.646Z,19.73
2019-03-23T10:00:45.743Z,19.67
2019-03-23T10:03:36.520Z,20.10
2019-03-23T10:06:27.374Z,20.40
2019-03-23T10:09:18.113Z,21.20
2019-03-23T10:12:09.481Z,22.07
2019-03-23T10:15:00.353Z,25.43
2019-03-23T10:17:50.485Z,22.30
2019-03-23T10:20:41.391Z,21.63
2019-03-23T10:23:32.310Z,23.53
2019-03-23T10:26:23.000Z,25.23
2019-03-23T10:29:13.944Z,23.80
2019-03-23T10:32:04.935Z,27.07
2019-03-23T10:34:55.782Z,26.63
2019-03-23T10:37:46.442Z,24.40
2019-03-23T10:40:37.501Z,22.80
2019-03-23T10:43:27.901Z,25.90
2019-03-23T10:46:18.562Z,26.00
2019-03-23T10:49:09.064Z,25.00
2019-03-23T10:51:59.955Z,27.93
2019-03-23T10:54:50.494Z,24.37
2019-03-23T10:57:41.463Z,23.93
2019-03-23T11:00:32.963Z,29.73
2019-03-23T11:03:23.684Z,32.13
2019-03-23T11:06:14.618Z,23.90
2019-03-23T11:09:07.452Z,26.60
2019-03-23T11:11:58.435Z,26.23
2019-03-23T11:14:49.096Z,26.27
2019-03-23T11:17:39.708Z,27.30
2019-03-23T11:20:31.296Z,28.10
2019-03-23T11:23:21.898Z,25.40
2019-03-23T11:26:13.008Z,28.20
2019-03-23T11:29:03.829Z,22.17
2019-03-23T11:31:54.544Z,33.03
2019-03-23T11:34:44.993Z,33.37
2019-03-23T11:37:36.725Z,28.93
2019-03-23T11:40:27.072Z,28.63
2019-03-23T11:43:17.217Z,26.67
2019-03-23T11:46:08.506Z,29.00
2019-03-23T11:49:04.554Z,28.50
2019-03-23T11:51:55.993Z,35.30
2019-03-23T11:54:46.695Z,29.20
2019-03-23T11:57:37.396Z,31.23
2019-03-23T12:00:27.971Z,37.70
2019-03-23T12:03:19.543Z,32.43
2019-03-23T12:06:10.030Z,31.40
2019-03-23T12:08:59.921Z,38.50
2019-03-23T12:11:50.867Z,27.70
2019-03-23T12:14:41.570Z,27.87
2019-03-23T12:17:32.543Z,31.67
2019-03-23T12:20:23.833Z,33.60
2019-03-23T12:23:14.774Z,34.10
2019-03-23T12:26:05.896Z,32.93
2019-03-23T12:28:56.533Z,31.20
2019-03-23T12:31:46.798Z,32.70
2019-03-23T12:34:38.479Z,29.20
2019-03-23T12:37:29.386Z,29.20
2019-03-23T12:40:20.343Z,32.27
2019-03-23T12:43:11.328Z,34.17
2019-03-23T12:46:01.633Z,29.60
2019-03-23T12:48:52.640Z,37.13
2019-03-23T12:51:42.631Z,29.83
2019-03-23T12:54:35.122Z,31.30
2019-03-23T12:57:25.746Z,31.13
2019-03-23T13:00:17.514Z,25.33
2019-03-23T13:03:09.420Z,32.37
2019-03-23T13:06:00.328Z,30.20
2019-03-23T13:08:51.188Z,27.23
2019-03-23T13:11:41.611Z,31.50
2019-03-23T13:14:32.722Z,34.97
2019-03-23T13:17:23.573Z,35.37
2019-03-23T13:20:15.294Z,37.50
2019-03-23T13:23:06.007Z,40.87
2019-03-23T13:25:56.844Z,43.90
2019-03-23T13:28:47.451Z,57.63
2019-03-23T13:31:38.324Z,60.07
2019-03-23T13:34:28.198Z,62.57
2019-03-23T13:37:18.080Z,56.13
2019-03-23T13:40:10.157Z,66.77
2019-03-23T13:43:00.954Z,69.70
2019-03-23T13:45:51.879Z,62.33
2019-03-23T13:48:43.392Z,62.83
2019-03-23T13:51:34.148Z,67.87
2019-03-23T13:54:24.799Z,77.90
2019-03-23T13:57:16.046Z,78.80
2019-03-23T14:00:08.771Z,92.20
2019-03-23T14:02:59.794Z,93.23
2019-03-23T14:05:50.684Z,98.60
2019-03-23T14:08:41.340Z,95.57
2019-03-23T14:11:32.700Z,107.67
2019-03-23T14:14:24.087Z,104.53
2019-03-23T14:17:15.098Z,101.07
2019-03-23T14:20:06.856Z,101.03
2019-03-23T14:23:02.695Z,93.27
2019-03-23T14:25:48.630Z,101.47
2019-03-23T14:28:39.190Z,104.33
2019-03-23T14:31:29.870Z,107.50
2019-03-23T14:34:20.196Z,102.53
2019-03-23T14:37:13.555Z,98.80
2019-03-23T14:40:04.283Z,88.80
2019-03-23T14:42:56.823Z,94.70
2019-03-23T14:45:47.412Z,93.10
2019-03-23T14:48:38.529Z,84.27
2019-03-23T14:51:28.019Z,94.43
2019-03-23T14:54:18.229Z,81.43
2019-03-23T14:57:08.763Z,85.03
2019-03-23T14:59:59.772Z,81.20
2019-03-23T15:02:50.722Z,76.27
2019-03-23T15:05:41.616Z,82.17
2019-03-23T15:08:33.771Z,67.40
2019-03-23T15:11:24.814Z,81.00
2019-03-23T15:14:15.781Z,83.67
2019-03-23T15:17:06.638Z,81.33
2019-03-23T15:19:57.109Z,85.97
2019-03-23T15:22:48.266Z,82.17
2019-03-23T15:25:39.572Z,87.97
2019-03-23T15:28:30.037Z,80.90
2019-03-23T15:31:21.084Z,76.80
2019-03-23T15:34:11.730Z,94.87
2019-03-23T15:37:02.111Z,81.77
2019-03-23T15:39:52.997Z,84.17
2019-03-23T15:42:45.186Z,91.73
2019-03-23T15:45:36.344Z,91.40
2019-03-23T15:48:28.697Z,91.33
2019-03-23T15:51:18.875Z,94.57
2019-03-23T15:54:09.513Z,89.00
2019-03-23T15:57:00.402Z,94.20
2019-03-23T15:59:51.249Z,100.93
2019-03-23T16:02:42.169Z,96.70
2019-03-23T16:05:33.169Z,102.30
2019-03-23T16:08:23.715Z,110.93
2019-03-23T16:11:14.353Z,101.33
2019-03-23T16:14:05.130Z,90.77
2019-03-23T16:16:56.106Z,96.07
2019-03-23T16:19:47.270Z,104.50
2019-03-23T16:22:38.094Z,92.17
2019-03-23T16:25:29.024Z,91.53
2019-03-23T16:28:19.999Z,95.00
2019-03-23T16:31:10.669Z,92.33
2019-03-23T16:34:01.669Z,100.37
2019-03-23T16:36:52.457Z,82.40
2019-03-23T16:39:42.929Z,85.47
2019-03-23T16:42:33.735Z,101.97
2019-03-23T16:45:24.185Z,91.90
2019-03-23T16:48:15.395Z,88.07
2019-03-23T16:51:06.282Z,92.87
2019-03-23T16:53:56.928Z,84.90
2019-03-23T16:56:47.967Z,92.13
2019-03-23T16:59:39.029Z,93.50
2019-03-23T17:02:29.901Z,86.43
2019-03-23T17:05:20.704Z,94.50
2019-03-23T17:08:11.404Z,89.50
2019-03-23T17:11:02.101Z,89.73
2019-03-23T17:13:53.469Z,92.90
2019-03-23T17:16:44.132Z,82.60
2019-03-23T17:19:35.369Z,80.90
2019-03-23T17:22:26.121Z,76.43
2019-03-23T17:25:16.677Z,87.50
2019-03-23T17:28:07.607Z,84.70
2019-03-23T17:30:58.093Z,80.13
2019-03-23T17:33:48.662Z,70.67
2019-03-23T17:36:40.214Z,83.70
2019-03-23T17:39:30.536Z,77.70
2019-03-23T17:42:21.470Z,83.47
2019-03-23T17:45:11.687Z,73.30
2019-03-23T17:48:02.649Z,87.80
2019-03-23T17:50:52.550Z,81.07
2019-03-23T17:53:43.615Z,83.97
2019-03-23T17:56:34.240Z,74.43
2019-03-23T17:59:24.221Z,75.93
2019-03-23T18:02:14.185Z,84.83
2019-03-23T18:05:04.997Z,79.83
2019-03-23T18:07:54.871Z,71.87
2019-03-23T18:10:44.650Z,75.80
2019-03-23T18:13:35.065Z,78.13
2019-03-23T18:16:26.088Z,69.73
2019-03-23T18:19:17.184Z,74.57
2019-03-23T18:22:07.917Z,83.33
2019-03-23T18:24:58.620Z,81.90
2019-03-23T18:27:48.587Z,74.27
2019-03-23T18:30:41.233Z,73.63
2019-03-23T18:33:31.062Z,76.20
2019-03-23T18:36:21.534Z,82.07
2019-03-23T18:39:12.135Z,65.70
2019-03-23T18:42:02.976Z,82.70
2019-03-23T18:44:53.561Z,73.53
2019-03-23T18:47:44.261Z,88.40
2019-03-23T18:50:35.086Z,79.70
2019-03-23T18:53:25.005Z,97.03
2019-03-23T18:56:15.569Z,85.47
2019-03-23T18:59:06.628Z,90.60
2019-03-23T19:01:56.833Z,80.57
2019-03-23T19:04:49.667Z,80.90
2019-03-23T19:07:40.114Z,75.80
2019-03-23T19:10:31.094Z,85.37
2019-03-23T19:13:21.466Z,81.43
2019-03-23T19:16:11.995Z,77.40
2019-03-23T19:19:01.855Z,89.80
2019-03-23T19:21:52.350Z,77.73
2019-03-23T19:24:43.097Z,80.40
2019-03-23T19:27:33.993Z,77.77
2019-03-23T19:30:26.748Z,69.63
2019-03-23T19:33:17.525Z,72.27
2019-03-23T19:36:08.528Z,67.47
2019-03-23T19:38:59.442Z,70.20
2019-03-23T19:41:50.679Z,72.43
2019-03-23T19:44:40.916Z,81.57
2019-03-23T19:47:31.639Z,75.87
2019-03-23T19:50:22.240Z,84.80
2019-03-23T19:53:13.136Z,86.60
2019-03-23T19:56:03.768Z,83.07
2019-03-23T19:58:54.087Z,84.63
2019-03-23T20:01:43.559Z,75.53
2019-03-23T20:04:34.008Z,83.17
2019-03-23T20:07:32.690Z,80.33
2019-03-23T20:10:17.015Z,74.63
2019-03-23T20:13:07.635Z,76.40
2019-03-23T20:15:58.246Z,74.57
2019-03-23T20:18:49.072Z,84.50
2019-03-23T20:21:39.753Z,70.70
2019-03-23T20:24:30.576Z,86.00
2019-03-23T20:27:21.211Z,84.67
2019-03-23T20:30:13.874Z,78.47
2019-03-23T20:33:04.849Z,77.20
2019-03-23T20:35:55.752Z,81.23
2019-03-23T20:38:47.076Z,90.60
2019-03-23T20:41:37.972Z,86.80
2019-03-23T20:44:28.391Z,81.77
2019-03-23T20:47:19.596Z,95.17
2019-03-23T20:50:11.385Z,118.83
2019-03-23T20:53:02.016Z,272.57
2019-03-23T20:55:52.582Z,107.43
2019-03-23T20:58:43.430Z,103.53
2019-03-23T21:01:34.096Z,137.47
2019-03-23T21:04:24.956Z,94.40
2019-03-23T21:07:16.517Z,104.43
2019-03-23T21:10:07.170Z,95.17
2019-03-23T21:12:57.280Z,87.67
2019-03-23T21:15:47.818Z,104.17
2019-03-23T21:18:38.756Z,92.87
2019-03-23T21:21:29.774Z,101.00
2019-03-23T21:24:21.162Z,85.23
2019-03-23T21:27:12.245Z,86.93
2019-03-23T21:30:03.264Z,91.73
2019-03-23T21:32:54.136Z,88.97
2019-03-23T21:35:44.866Z,95.00
2019-03-23T21:38:35.605Z,94.13
2019-03-23T21:41:26.141Z,95.63
2019-03-23T21:44:17.024Z,93.87
2019-03-23T21:47:07.698Z,83.63
2019-03-23T21:49:58.536Z,98.87
2019-03-23T21:52:49.803Z,96.67
2019-03-23T21:55:40.634Z,97.13
2019-03-23T21:58:31.110Z,111.07
2019-03-23T22:01:21.925Z,96.27
2019-03-23T22:04:12.084Z,87.57
2019-03-23T22:07:02.496Z,102.93
2019-03-23T22:09:53.326Z,93.40
2019-03-23T22:12:43.431Z,101.83
2019-03-23T22:15:35.038Z,95.00
2019-03-23T22:18:25.362Z,99.83
2019-03-23T22:21:16.357Z,102.40
2019-03-23T22:24:07.050Z,96.10
2019-03-23T22:26:59.304Z,86.80
2019-03-23T22:29:49.837Z,91.97
2019-03-23T22:32:40.727Z,101.07
2019-03-23T22:35:31.618Z,96.07
2019-03-23T22:38:22.341Z,100.07
2019-03-23T22:41:13.107Z,91.27
2019-03-23T22:44:03.767Z,100.83
2019-03-23T22:46:55.024Z,100.10
2019-03-23T22:49:46.489Z,94.30
2019-03-23T22:52:37.899Z,101.17
2019-03-23T22:55:28.797Z,91.13
2019-03-23T22:58:19.769Z,103.30
2019-03-23T23:01:10.806Z,121.73
2019-03-23T23:04:01.407Z,91.10
2019-03-23T23:06:52.213Z,116.53
2019-03-23T23:09:42.852Z,96.13
2019-03-23T23:12:33.137Z,101.87
2019-03-23T23:15:24.344Z,100.93
2019-03-23T23:18:15.044Z,116.70
2019-03-23T23:21:06.061Z,95.57
2019-03-23T23:23:55.655Z,112.20
2019-03-23T23:26:46.536Z,104.77
2019-03-23T23:29:36.965Z,108.53
2019-03-23T23:32:28.061Z,103.30
2019-03-23T23:35:18.795Z,101.27
2019-03-23T23:38:09.361Z,90.47
2019-03-23T23:41:00.072Z,102.33
2019-03-23T23:43:50.912Z,95.97
2019-03-23T23:46:41.626Z,97.10
2019-03-23T23:49:32.316Z,92.17
2019-03-23T23:52:23.568Z,83.47
2019-03-23T23:55:15.848Z,89.57
2019-03-23T23:58:06.493Z,109.50
